Time;durP1;ratioP1;P1;durP2;ratioP2;P2;SDS_P1;SDS_P2;PMS_P1;PMS_P2;Temp;Humidity;BMP_temperature;BMP_pressure;BME280_temperature;BME280_humidity;BME280_pressure;Samples;Min_cycle;Max_cycle;Signal;HPM_P1;HPM_P2
2024/01/25 00:02:19;;;;;;;37.38;6.35;;;7.00;99.90;;;;;;4865398;29;20057;-76
2024/01/25 00:04:45;;;;;;;48.33;9.50;;;6.90;99.90;;;;;;4865430;29;20047;-76
2024/01/25 00:07:10;;;;;;;36.30;7.53;;;6.90;99.90;;;;;;4865154;29;20053;-77
2024/01/25 00:09:36;;;;;;;43.17;7.95;;;6.90;99.90;;;;;;4864862;29;20057;-76
2024/01/25 00:12:03;;;;;;;32.20;6.97;;;6.90;99.90;;;;;;4865048;29;20139;-76
2024/01/25 00:14:29;;;;;;;29.23;5.20;;;6.90;99.90;;;;;;4864995;29;20123;-76
2024/01/25 00:16:57;;;;;;;41.20;6.60;;;6.90;99.90;;;;;;4864730;29;20465;-76
2024/01/25 00:19:22;;;;;;;42.72;5.55;;;6.90;99.90;;;;;;4864799;29;20055;-76
2024/01/25 00:21:48;;;;;;;34.10;7.30;;;6.90;99.90;;;;;;4864824;29;20132;-76
2024/01/25 00:24:14;;;;;;;47.70;7.30;;;6.90;99.90;;;;;;4864822;29;20400;-76
2024/01/25 00:26:39;;;;;;;37.03;6.80;;;6.90;99.90;;;;;;4864843;29;20056;-76
2024/01/25 00:29:05;;;;;;;40.63;6.25;;;6.90;99.90;;;;;;4865418;29;20521;-76
2024/01/25 00:31:31;;;;;;;32.17;6.57;;;6.90;99.90;;;;;;4864781;29;20402;-76
2024/01/25 00:33:57;;;;;;;35.88;5.88;;;6.90;99.90;;;;;;4864570;29;20057;-76
2024/01/25 00:36:25;;;;;;;37.08;5.07;;;6.80;99.90;;;;;;4881355;29;20120;-76
2024/01/25 00:38:51;;;;;;;41.50;5.82;;;6.80;99.90;;;;;;4864826;29;20095;-76
2024/01/25 00:41:21;;;;;;;42.88;6.32;;;6.90;99.90;;;;;;4864359;29;20084;-76
2024/01/25 00:43:46;;;;;;;40.95;7.47;;;6.80;99.90;;;;;;4864254;29;20044;-76
2024/01/25 00:46:18;;;;;;;48.53;6.47;;;6.80;99.90;;;;;;4864594;29;20124;-76
2024/01/25 00:48:44;;;;;;;45.42;7.13;;;6.80;99.90;;;;;;4864692;29;20079;-76
2024/01/25 00:51:15;;;;;;;42.67;7.88;;;6.70;99.90;;;;;;4864221;29;20462;-76
2024/01/25 00:53:41;;;;;;;38.28;7.18;;;6.70;99.90;;;;;;4864381;29;20397;-76
2024/01/25 00:56:07;;;;;;;42.30;6.65;;;6.70;99.90;;;;;;4864168;29;20049;-76
2024/01/25 00:58:33;;;;;;;39.95;6.53;;;6.70;99.90;;;;;;4864376;29;20053;-76
2024/01/25 01:00:59;;;;;;;37.30;7.05;;;6.70;99.90;;;;;;4864134;29;20048;-76
2024/01/25 01:03:25;;;;;;;41.65;7.65;;;6.60;99.90;;;;;;4864170;29;20048;-77
2024/01/25 01:05:51;;;;;;;46.25;6.70;;;6.70;99.90;;;;;;4864027;29;20482;-76
2024/01/25 01:08:17;;;;;;;37.45;7.18;;;6.60;99.90;;;;;;4864151;29;20056;-76
2024/01/25 01:10:43;;;;;;;45.08;6.93;;;6.60;99.90;;;;;;4863694;29;20068;-76
2024/01/25 01:13:08;;;;;;;46.65;7.28;;;6.60;99.90;;;;;;4863946;29;20053;-76
2024/01/25 01:15:34;;;;;;;41.75;7.10;;;6.50;99.90;;;;;;4864270;29;20056;-76
2024/01/25 01:17:59;;;;;;;36.35;7.47;;;6.50;99.90;;;;;;4863895;29;20053;-76
2024/01/25 01:20:25;;;;;;;43.42;8.23;;;6.50;99.90;;;;;;4863791;29;20148;-76
2024/01/25 01:22:52;;;;;;;27.75;5.90;;;6.50;99.90;;;;;;4863693;29;20048;-76
2024/01/25 01:25:17;;;;;;;44.20;8.07;;;6.60;99.90;;;;;;4863676;29;20056;-76
2024/01/25 01:27:43;;;;;;;38.92;6.65;;;6.60;99.90;;;;;;4863634;29;20072;-76
2024/01/25 01:30:09;;;;;;;32.25;6.80;;;6.50;99.90;;;;;;4863149;29;20049;-76
2024/01/25 01:32:35;;;;;;;35.88;6.68;;;6.50;99.90;;;;;;4863727;29;20057;-76
2024/01/25 01:35:00;;;;;;;39.00;6.53;;;6.60;99.90;;;;;;4863874;29;20052;-76
2024/01/25 01:37:26;;;;;;;38.72;5.50;;;6.60;99.90;;;;;;4863446;29;20517;-76
2024/01/25 01:39:52;;;;;;;39.28;6.47;;;6.60;99.90;;;;;;4863334;29;20044;-76
2024/01/25 01:42:18;;;;;;;38.08;7.80;;;6.60;99.90;;;;;;4863407;29;20454;-76
2024/01/25 01:44:44;;;;;;;42.20;6.28;;;6.60;99.90;;;;;;4863476;29;20489;-76
2024/01/25 01:47:09;;;;;;;37.13;5.85;;;6.60;99.90;;;;;;4863798;29;20049;-76
2024/01/25 01:49:35;;;;;;;40.50;7.63;;;6.50;99.90;;;;;;4863387;29;20389;-76
2024/01/25 01:52:05;;;;;;;39.22;6.65;;;6.50;99.90;;;;;;4863264;29;20052;-76
2024/01/25 01:54:34;;;;;;;46.40;6.97;;;6.50;99.90;;;;;;4863223;29;20048;-76
2024/01/25 01:57:00;;;;;;;38.38;6.80;;;6.50;99.90;;;;;;4863208;29;20486;-76
2024/01/25 01:59:26;;;;;;;39.63;6.97;;;6.40;99.90;;;;;;4863508;29;20040;-76
2024/01/25 02:01:52;;;;;;;34.80;6.35;;;6.40;99.90;;;;;;4863215;29;20383;-76
2024/01/25 02:04:18;;;;;;;38.95;7.57;;;6.40;99.90;;;;;;4863061;29;20056;-76
2024/01/25 02:06:45;;;;;;;35.65;6.70;;;6.40;99.90;;;;;;4863165;29;20053;-76
2024/01/25 02:09:11;;;;;;;45.40;7.82;;;6.30;99.90;;;;;;4863212;29;20053;-76
2024/01/25 02:11:37;;;;;;;42.95;7.15;;;6.30;99.90;;;;;;4863206;29;20084;-77
2024/01/25 02:14:03;;;;;;;36.22;8.13;;;6.30;99.90;;;;;;4863427;29;20405;-77
2024/01/25 02:16:28;;;;;;;41.38;7.60;;;6.30;99.90;;;;;;4863004;29;20497;-76
2024/01/25 02:18:57;;;;;;;35.00;7.75;;;6.30;99.90;;;;;;4862975;29;20486;-77
2024/01/25 02:21:22;;;;;;;34.17;8.18;;;6.30;99.90;;;;;;4862765;29;20049;-77
2024/01/25 02:23:49;;;;;;;42.75;8.48;;;6.20;99.90;;;;;;4863015;29;20052;-76
2024/01/25 02:26:15;;;;;;;41.35;8.27;;;6.30;99.90;;;;;;4862920;29;20041;-76
2024/01/25 02:28:40;;;;;;;45.20;7.10;;;6.20;99.90;;;;;;4863114;29;20049;-76
2024/01/25 02:31:06;;;;;;;43.05;6.68;;;6.30;99.90;;;;;;4863313;29;20052;-76
2024/01/25 02:33:32;;;;;;;42.70;6.43;;;6.30;99.90;;;;;;4863038;29;20080;-76
2024/01/25 02:35:57;;;;;;;39.88;7.80;;;6.20;99.90;;;;;;4862919;29;20056;-76
2024/01/25 02:38:23;;;;;;;40.13;5.78;;;6.20;99.90;;;;;;4862966;29;20048;-76
2024/01/25 02:40:49;;;;;;;37.47;5.63;;;6.20;99.90;;;;;;4862808;29;20057;-76
2024/01/25 02:43:14;;;;;;;47.17;8.57;;;6.20;99.90;;;;;;4866204;29;20104;-76
2024/01/25 02:45:40;;;;;;;38.55;6.70;;;6.20;99.90;;;;;;4866884;29;20482;-76
2024/01/25 02:48:06;;;;;;;43.03;8.27;;;6.20;99.90;;;;;;4866721;29;20053;-76
2024/01/25 02:50:32;;;;;;;39.13;5.60;;;6.20;99.90;;;;;;4866540;29;20079;-76
2024/01/25 02:52:58;;;;;;;38.83;6.43;;;6.20;99.90;;;;;;4866361;29;20128;-76
2024/01/25 02:55:24;;;;;;;42.58;7.78;;;6.20;99.90;;;;;;4866598;29;20061;-76
2024/01/25 02:57:49;;;;;;;39.88;6.85;;;6.10;99.90;;;;;;4866383;29;20159;-76
2024/01/25 03:00:15;;;;;;;41.03;6.43;;;6.10;99.90;;;;;;4866482;29;20085;-76
2024/01/25 03:02:40;;;;;;;52.63;8.70;;;6.00;99.90;;;;;;4866338;29;20139;-76
2024/01/25 03:05:06;;;;;;;30.70;6.05;;;6.10;99.90;;;;;;4866423;29;20077;-76
2024/01/25 03:07:32;;;;;;;50.17;8.57;;;6.10;99.90;;;;;;4866455;29;20576;-76
2024/01/25 03:09:59;;;;;;;42.42;8.20;;;6.10;99.90;;;;;;4865815;29;20057;-76
2024/01/25 03:12:25;;;;;;;41.53;7.00;;;6.00;99.90;;;;;;4866124;29;20096;-76
2024/01/25 03:14:50;;;;;;;37.63;7.63;;;6.00;99.90;;;;;;4866233;29;20052;-76
2024/01/25 03:17:16;;;;;;;34.67;6.10;;;6.00;99.90;;;;;;4866087;29;20057;-76
2024/01/25 03:19:41;;;;;;;44.30;8.55;;;6.00;99.90;;;;;;4865759;29;20097;-76
2024/01/25 03:22:07;;;;;;;39.20;7.43;;;6.00;99.90;;;;;;4865724;29;20052;-76
2024/01/25 03:24:33;;;;;;;45.00;7.03;;;6.00;99.90;;;;;;4865883;29;20052;-76
2024/01/25 03:26:58;;;;;;;42.47;6.60;;;5.90;99.90;;;;;;4865816;29;20074;-76
2024/01/25 03:29:24;;;;;;;57.80;8.68;;;5.90;99.90;;;;;;4865788;29;20053;-76
2024/01/25 03:31:50;;;;;;;30.55;6.55;;;5.90;99.90;;;;;;4865833;29;20056;-76
2024/01/25 03:34:15;;;;;;;49.85;7.68;;;5.90;99.90;;;;;;4865828;29;20045;-76
2024/01/25 03:36:41;;;;;;;43.42;8.73;;;5.90;99.90;;;;;;4865886;29;20387;-76
2024/01/25 03:39:07;;;;;;;38.15;5.80;;;5.90;99.90;;;;;;4865676;29;20060;-76
2024/01/25 03:41:32;;;;;;;40.65;5.95;;;5.90;99.90;;;;;;4865596;29;20049;-76
2024/01/25 03:43:58;;;;;;;47.92;7.97;;;5.90;99.90;;;;;;4865774;29;20129;-76
2024/01/25 03:46:24;;;;;;;41.55;6.40;;;5.80;99.90;;;;;;4865526;29;20045;-76
2024/01/25 03:48:49;;;;;;;37.35;6.90;;;5.90;99.90;;;;;;4865633;29;20045;-76
2024/01/25 03:51:16;;;;;;;40.50;6.13;;;5.80;99.90;;;;;;4865433;29;20454;-76
2024/01/25 03:53:42;;;;;;;45.58;7.18;;;5.80;99.90;;;;;;4864668;29;20482;-76
2024/01/25 03:56:17;;;;;;;42.97;5.80;;;5.80;99.90;;;;;;4865317;29;20498;-76
2024/01/25 03:58:46;;;;;;;41.65;7.07;;;5.80;99.90;;;;;;4865296;29;20048;-76
2024/01/25 04:01:12;;;;;;;44.25;7.82;;;5.80;99.90;;;;;;4864974;29;20508;-76
2024/01/25 04:03:37;;;;;;;39.53;6.65;;;5.80;99.90;;;;;;4865362;29;20132;-76
2024/01/25 04:06:03;;;;;;;39.90;7.70;;;5.70;99.90;;;;;;4865378;29;20394;-76
2024/01/25 04:08:29;;;;;;;40.08;7.85;;;5.70;99.90;;;;;;4865275;29;20053;-76
2024/01/25 04:10:56;;;;;;;36.08;8.20;;;5.70;99.90;;;;;;4865140;29;20410;-76
2024/01/25 04:13:22;;;;;;;44.10;7.95;;;5.70;99.90;;;;;;4865019;29;20489;-76
2024/01/25 04:15:47;;;;;;;38.10;6.63;;;5.70;99.90;;;;;;4864888;29;20037;-76
2024/01/25 04:18:13;;;;;;;32.03;6.22;;;5.70;99.90;;;;;;4864879;29;20089;-76
2024/01/25 04:20:41;;;;;;;45.72;7.80;;;5.70;99.90;;;;;;4864961;29;20052;-76
2024/01/25 04:23:06;;;;;;;36.45;5.97;;;5.60;99.90;;;;;;4865115;29;20056;-76
2024/01/25 04:25:32;;;;;;;36.75;5.72;;;5.60;99.90;;;;;;4865069;29;20057;-76
2024/01/25 04:27:58;;;;;;;36.63;6.10;;;5.60;99.90;;;;;;4865034;29;20045;-76
2024/01/25 04:30:23;;;;;;;38.10;6.32;;;5.70;99.90;;;;;;4864604;29;20494;-76
2024/01/25 04:32:49;;;;;;;39.10;6.35;;;5.70;99.90;;;;;;4864879;29;20045;-76
2024/01/25 04:35:15;;;;;;;39.60;7.07;;;5.60;99.90;;;;;;4864872;29;20048;-76
2024/01/25 04:37:40;;;;;;;44.65;7.68;;;5.60;99.90;;;;;;4881283;29;20105;-76
2024/01/25 04:40:07;;;;;;;36.22;6.70;;;5.60;99.90;;;;;;4864582;29;20052;-76
2024/01/25 04:42:33;;;;;;;37.83;6.70;;;5.50;99.90;;;;;;4864824;29;20057;-76
2024/01/25 04:44:59;;;;;;;37.80;6.15;;;5.50;99.90;;;;;;4864609;29;20477;-76
2024/01/25 04:47:24;;;;;;;42.15;6.93;;;5.40;99.90;;;;;;4864630;29;20071;-76
2024/01/25 04:49:50;;;;;;;43.28;7.20;;;5.40;99.90;;;;;;4864325;29;20435;-76
2024/01/25 04:52:16;;;;;;;25.08;6.07;;;5.40;99.90;;;;;;4864374;29;20065;-76
2024/01/25 04:54:41;;;;;;;39.40;8.15;;;5.40;99.90;;;;;;4864301;29;20128;-76
2024/01/25 04:57:07;;;;;;;36.88;6.65;;;5.40;99.90;;;;;;4863857;29;20048;-76
2024/01/25 04:59:33;;;;;;;33.55;5.28;;;5.30;99.90;;;;;;4864343;29;20064;-76
2024/01/25 05:01:59;;;;;;;44.92;8.43;;;5.30;99.90;;;;;;4863989;29;20453;-76
2024/01/25 05:04:25;;;;;;;36.17;6.20;;;5.30;99.90;;;;;;4863908;29;20045;-76
2024/01/25 05:06:54;;;;;;;30.52;5.55;;;5.30;99.90;;;;;;4863764;29;20128;-76
2024/01/25 05:09:19;;;;;;;38.15;6.80;;;5.30;99.90;;;;;;4864164;29;20577;-76
2024/01/25 05:11:46;;;;;;;39.70;9.75;;;5.20;99.90;;;;;;4863845;29;20496;-76
2024/01/25 05:14:11;;;;;;;41.28;7.82;;;5.30;99.90;;;;;;4863803;29;20049;-76
2024/01/25 05:16:37;;;;;;;40.90;7.55;;;5.30;99.90;;;;;;4863848;29;20052;-76
2024/01/25 05:19:05;;;;;;;36.83;7.28;;;5.30;99.90;;;;;;4863835;29;20049;-76
2024/01/25 05:21:31;;;;;;;39.13;6.00;;;5.40;99.90;;;;;;4863768;29;20059;-76
2024/01/25 05:23:57;;;;;;;37.92;6.85;;;5.40;99.90;;;;;;4863785;29;20049;-76
2024/01/25 05:26:23;;;;;;;47.25;7.30;;;5.40;99.90;;;;;;4863674;29;20049;-76
2024/01/25 05:28:48;;;;;;;46.97;6.30;;;5.40;99.90;;;;;;4863900;29;20481;-76
2024/01/25 05:31:14;;;;;;;37.33;6.18;;;5.40;99.90;;;;;;4863678;29;20049;-76
2024/01/25 05:33:40;;;;;;;36.60;6.40;;;5.40;99.90;;;;;;4863604;29;20055;-76
2024/01/25 05:36:06;;;;;;;46.00;9.25;;;5.30;99.90;;;;;;4863761;29;20049;-76
2024/01/25 05:38:32;;;;;;;30.92;5.57;;;5.30;99.90;;;;;;4863874;29;20053;-76
2024/01/25 05:40:58;;;;;;;36.40;6.43;;;5.20;99.90;;;;;;4863730;29;20051;-76
2024/01/25 05:43:24;;;;;;;30.35;6.65;;;5.20;99.90;;;;;;4863391;29;20048;-76
2024/01/25 05:45:50;;;;;;;30.50;6.95;;;5.10;99.90;;;;;;4863401;29;20159;-76
2024/01/25 05:48:15;;;;;;;33.33;6.30;;;5.00;99.90;;;;;;4863665;29;20041;-76
2024/01/25 05:50:41;;;;;;;31.27;6.03;;;5.00;99.90;;;;;;4863466;29;20056;-76
2024/01/25 05:53:10;;;;;;;36.35;5.43;;;5.00;99.90;;;;;;4863452;29;20049;-77
2024/01/25 05:55:36;;;;;;;31.70;6.07;;;5.00;99.90;;;;;;4863228;29;20060;-76
2024/01/25 05:58:02;;;;;;;41.63;6.28;;;5.00;99.90;;;;;;4863350;29;20093;-76
2024/01/25 06:00:33;;;;;;;40.22;5.70;;;5.00;99.90;;;;;;4863233;29;20045;-76
2024/01/25 06:02:59;;;;;;;34.60;6.97;;;4.90;99.90;;;;;;4863168;29;20049;-76
2024/01/25 06:05:25;;;;;;;34.90;5.13;;;5.00;99.90;;;;;;4863243;29;20056;-76
2024/01/25 06:07:50;;;;;;;33.95;5.55;;;5.00;99.90;;;;;;4879917;29;20041;-76
2024/01/25 06:10:16;;;;;;;31.92;6.03;;;5.00;99.90;;;;;;4862891;29;20495;-76
2024/01/25 06:12:42;;;;;;;27.75;5.13;;;5.00;99.90;;;;;;4863159;29;20057;-76
2024/01/25 06:15:10;;;;;;;32.05;5.93;;;5.00;99.90;;;;;;4863483;29;20113;-76
2024/01/25 06:17:36;;;;;;;28.60;5.22;;;5.00;99.90;;;;;;4865939;29;20080;-76
2024/01/25 06:20:02;;;;;;;29.75;5.40;;;4.90;99.90;;;;;;4883735;29;20484;-76
2024/01/25 06:22:28;;;;;;;37.80;6.22;;;4.80;99.90;;;;;;4866924;29;20104;-76
2024/01/25 06:24:53;;;;;;;37.30;6.85;;;4.80;99.90;;;;;;4866655;29;20053;-76
2024/01/25 06:27:19;;;;;;;34.53;5.90;;;4.80;99.90;;;;;;4866799;29;20481;-76
2024/01/25 06:29:44;;;;;;;41.33;6.07;;;4.80;99.90;;;;;;4866772;29;20057;-76
2024/01/25 06:32:14;;;;;;;37.92;6.47;;;4.70;99.90;;;;;;4866843;29;20041;-76
2024/01/25 06:34:39;;;;;;;48.25;6.25;;;4.70;99.90;;;;;;4866847;29;20105;-76
2024/01/25 06:37:05;;;;;;;41.75;6.55;;;4.70;99.90;;;;;;4883513;29;20045;-76
2024/01/25 06:39:32;;;;;;;30.58;5.07;;;4.70;99.90;;;;;;4883345;29;20049;-76
2024/01/25 06:41:57;;;;;;;32.22;5.50;;;4.60;99.90;;;;;;4866479;29;20374;-76
2024/01/25 06:44:23;;;;;;;33.03;6.05;;;4.70;99.90;;;;;;4866596;29;20177;-76
2024/01/25 06:46:49;;;;;;;34.97;6.20;;;4.60;99.90;;;;;;4866600;29;20049;-77
2024/01/25 06:49:14;;;;;;;32.58;6.63;;;4.60;99.90;;;;;;4866206;29;20105;-77
2024/01/25 06:51:40;;;;;;;39.65;6.57;;;4.50;99.90;;;;;;4866776;29;20095;-77
2024/01/25 06:54:05;;;;;;;29.27;5.97;;;4.50;99.90;;;;;;4866557;29;20052;-76
2024/01/25 06:56:31;;;;;;;38.20;6.88;;;4.50;99.90;;;;;;4865843;29;20061;-76
2024/01/25 06:58:57;;;;;;;35.08;7.18;;;4.50;99.90;;;;;;4866333;29;20045;-77
2024/01/25 07:01:23;;;;;;;31.60;6.72;;;4.40;99.90;;;;;;4866255;29;20049;-76
2024/01/25 07:03:52;;;;;;;38.95;6.32;;;4.40;99.90;;;;;;4866528;29;20064;-76
2024/01/25 07:06:18;;;;;;;35.67;6.20;;;4.40;99.90;;;;;;4866438;29;20405;-76
2024/01/25 07:08:45;;;;;;;52.85;7.80;;;4.40;99.90;;;;;;4866275;29;20048;-76
2024/01/25 07:11:11;;;;;;;37.92;6.68;;;4.30;99.90;;;;;;4865748;29;20489;-76
2024/01/25 07:13:37;;;;;;;41.58;7.25;;;4.30;99.90;;;;;;4865315;29;20049;-76
2024/01/25 07:16:03;;;;;;;34.55;7.15;;;4.30;99.90;;;;;;4866107;29;20404;-76
2024/01/25 07:18:29;;;;;;;34.17;6.55;;;4.20;99.90;;;;;;4866010;29;20056;-76
2024/01/25 07:20:54;;;;;;;46.58;7.10;;;4.20;99.90;;;;;;4865836;29;20427;-76
2024/01/25 07:23:21;;;;;;;42.35;7.15;;;4.20;99.90;;;;;;4865758;29;20209;-77
2024/01/25 07:25:47;;;;;;;36.13;6.38;;;4.20;99.90;;;;;;4865674;29;20053;-77
2024/01/25 07:28:13;;;;;;;31.45;5.75;;;4.10;99.90;;;;;;4864940;29;20055;-76
2024/01/25 07:30:38;;;;;;;37.28;5.93;;;4.10;99.90;;;;;;4865882;29;20516;-76
2024/01/25 07:33:04;;;;;;;33.50;5.20;;;4.10;99.90;;;;;;4865548;29;20413;-76
2024/01/25 07:35:30;;;;;;;30.08;6.70;;;4.00;99.90;;;;;;4882117;29;20056;-76
2024/01/25 07:37:55;;;;;;;36.90;6.75;;;4.00;99.90;;;;;;4865380;29;20041;-76
2024/01/25 07:40:21;;;;;;;39.80;7.10;;;4.10;99.90;;;;;;4865518;29;20053;-76
2024/01/25 07:42:47;;;;;;;35.05;6.38;;;4.00;99.90;;;;;;4865439;29;20476;-76
2024/01/25 07:45:13;;;;;;;39.17;7.40;;;4.10;99.90;;;;;;4865311;29;20055;-76
2024/01/25 07:47:41;;;;;;;47.17;7.60;;;4.00;99.90;;;;;;4865599;29;20063;-76
2024/01/25 07:50:08;;;;;;;35.20;7.28;;;4.10;99.90;;;;;;4865417;29;20056;-76
2024/01/25 07:52:34;;;;;;;43.63;8.85;;;4.10;99.90;;;;;;4865462;29;20049;-76
2024/01/25 07:54:59;;;;;;;44.20;6.90;;;4.10;99.90;;;;;;4865531;29;20374;-76
2024/01/25 07:57:25;;;;;;;53.10;8.07;;;4.10;99.90;;;;;;4865058;29;20449;-76
2024/01/25 07:59:50;;;;;;;42.50;7.32;;;4.10;99.90;;;;;;4865065;29;20048;-77
2024/01/25 08:02:16;;;;;;;39.03;8.27;;;4.10;99.90;;;;;;4865092;29;20049;-76
2024/01/25 08:04:42;;;;;;;46.15;7.75;;;4.10;99.90;;;;;;4864844;29;20045;-77
2024/01/25 08:07:08;;;;;;;43.85;7.57;;;4.20;99.90;;;;;;4881629;29;20049;-77
2024/01/25 08:09:34;;;;;;;40.25;6.15;;;4.10;99.90;;;;;;4864919;29;20061;-76
2024/01/25 08:12:01;;;;;;;40.00;6.18;;;4.20;99.90;;;;;;4881755;29;20060;-75
2024/01/25 08:14:26;;;;;;;41.13;7.65;;;4.20;99.90;;;;;;4865093;29;20060;-77
2024/01/25 08:16:52;;;;;;;55.67;7.95;;;4.20;99.90;;;;;;4865086;29;20049;-77
2024/01/25 08:19:17;;;;;;;38.55;7.22;;;4.20;99.90;;;;;;4864736;29;20053;-77
2024/01/25 08:21:43;;;;;;;37.42;7.97;;;4.20;99.90;;;;;;4862371;29;20046;-76
2024/01/25 08:24:09;;;;;;;40.30;7.30;;;4.20;99.90;;;;;;4855470;29;20046;-83
2024/01/25 08:26:34;;;;;;;45.53;7.68;;;4.30;99.90;;;;;;4845909;29;20049;-78
2024/01/25 08:29:01;;;;;;;43.78;10.63;;;4.30;99.90;;;;;;4845828;29;20042;-76
2024/01/25 08:31:27;;;;;;;39.85;5.80;;;4.30;99.90;;;;;;4846173;29;20133;-75
2024/01/25 08:33:52;;;;;;;34.42;7.32;;;4.30;99.90;;;;;;4862623;29;20424;-75
2024/01/25 08:36:22;;;;;;;50.25;7.28;;;4.40;99.90;;;;;;4862419;29;20395;-75
2024/01/25 08:38:48;;;;;;;44.17;7.82;;;4.40;99.90;;;;;;4845710;29;20088;-76
2024/01/25 08:41:15;;;;;;;39.28;7.97;;;4.40;99.90;;;;;;4845447;29;20085;-76
2024/01/25 08:43:41;;;;;;;51.42;8.30;;;4.40;99.90;;;;;;4845716;29;20062;-86
2024/01/25 08:46:07;;;;;;;42.40;6.63;;;4.50;99.90;;;;;;4845794;29;20049;-75
2024/01/25 08:48:33;;;;;;;36.72;6.25;;;4.40;99.90;;;;;;4862391;29;20049;-76
2024/01/25 08:50:59;;;;;;;47.75;8.30;;;4.40;99.90;;;;;;4845899;29;20053;-77
2024/01/25 08:53:27;;;;;;;47.70;7.63;;;4.40;99.90;;;;;;4845510;29;20057;-77
2024/01/25 08:55:54;;;;;;;37.55;7.07;;;4.50;99.90;;;;;;4845625;29;20050;-78
2024/01/25 08:58:20;;;;;;;50.42;8.27;;;4.50;99.90;;;;;;4845736;29;20084;-76
2024/01/25 09:00:46;;;;;;;53.97;9.63;;;4.50;99.90;;;;;;4845313;29;20053;-77
2024/01/25 09:03:11;;;;;;;47.00;7.82;;;4.50;99.90;;;;;;4845326;29;20060;-77
2024/01/25 09:05:40;;;;;;;47.15;8.32;;;4.60;99.90;;;;;;4845491;29;20076;-76
2024/01/25 09:08:07;;;;;;;45.97;7.05;;;4.60;99.90;;;;;;4845509;29;20173;-76
2024/01/25 09:10:34;;;;;;;46.78;8.25;;;4.70;99.90;;;;;;4845112;29;20491;-76
2024/01/25 09:12:59;;;;;;;50.55;7.85;;;4.70;99.90;;;;;;4845203;29;20060;-76
2024/01/25 09:15:25;;;;;;;44.25;9.02;;;4.80;99.90;;;;;;4845002;29;20057;-76
2024/01/25 09:17:51;;;;;;;33.92;6.90;;;4.80;99.90;;;;;;4845383;29;20058;-76
2024/01/25 09:20:16;;;;;;;46.33;8.10;;;4.80;99.90;;;;;;4844929;29;20086;-77
2024/01/25 09:22:43;;;;;;;44.40;8.00;;;4.90;99.90;;;;;;4844947;29;20089;-76
2024/01/25 09:25:08;;;;;;;52.90;8.55;;;4.90;99.90;;;;;;4861685;29;20045;-78
2024/01/25 09:27:34;;;;;;;41.30;7.80;;;5.00;99.90;;;;;;4845182;29;20387;-77
2024/01/25 09:30:00;;;;;;;45.28;8.73;;;5.00;99.90;;;;;;4845044;29;20450;-77
2024/01/25 09:32:25;;;;;;;52.25;9.90;;;5.00;99.90;;;;;;4845194;29;20051;-78
2024/01/25 09:34:51;;;;;;;52.25;9.73;;;5.10;99.90;;;;;;4844745;29;20406;-76
2024/01/25 09:37:17;;;;;;;40.97;7.78;;;5.10;99.90;;;;;;4844789;29;20080;-76
2024/01/25 09:39:43;;;;;;;49.17;8.02;;;5.20;99.90;;;;;;4844971;29;20084;-76
2024/01/25 09:42:10;;;;;;;51.95;8.85;;;5.20;99.90;;;;;;4861529;29;20092;-79
2024/01/25 09:44:36;;;;;;;51.72;9.77;;;5.20;99.90;;;;;;4847746;29;20041;-78
2024/01/25 09:47:07;;;;;;;47.38;9.20;;;5.30;99.90;;;;;;4858682;29;20056;-77
2024/01/25 09:49:33;;;;;;;36.63;7.40;;;5.40;99.90;;;;;;4876029;29;20041;-77
2024/01/25 09:52:03;;;;;;;58.30;9.68;;;5.40;99.90;;;;;;4875163;29;20720;-77
2024/01/25 09:54:37;;;;;;;46.58;7.65;;;5.40;99.90;;;;;;4858812;29;20063;-78
2024/01/25 09:57:08;;;;;;;44.58;7.13;;;5.50;99.90;;;;;;4858685;29;20082;-78
2024/01/25 09:59:34;;;;;;;48.30;9.25;;;5.60;99.90;;;;;;4875561;29;20075;-78
2024/01/25 10:02:01;;;;;;;50.47;9.63;;;5.70;99.90;;;;;;4859013;29;20760;-78
2024/01/25 10:04:27;;;;;;;60.10;8.52;;;6.00;99.90;;;;;;4876020;29;20041;-78
2024/01/25 10:06:57;;;;;;;58.13;9.45;;;6.00;99.90;;;;;;4875371;29;20442;-78
2024/01/25 10:09:23;;;;;;;38.88;8.02;;;6.10;99.90;;;;;;4858478;29;20127;-78
2024/01/25 10:11:49;;;;;;;44.08;9.23;;;6.20;99.90;;;;;;4858973;29;20572;-78
2024/01/25 10:14:14;;;;;;;51.78;8.63;;;6.40;99.90;;;;;;4858895;29;20120;-78
2024/01/25 10:16:40;;;;;;;48.05;8.57;;;6.50;99.90;;;;;;4858419;29;20132;-77
2024/01/25 10:19:09;;;;;;;39.67;8.63;;;6.60;99.90;;;;;;4859307;29;20044;-76
2024/01/25 10:21:36;;;;;;;53.58;10.25;;;6.60;99.90;;;;;;4873362;29;20088;-77
2024/01/25 10:24:02;;;;;;;38.10;9.20;;;6.60;99.90;;;;;;4887608;29;20457;-77
2024/01/25 10:26:28;;;;;;;48.03;10.38;;;6.70;99.90;;;;;;4870089;29;20493;-78
2024/01/25 10:28:54;;;;;;;35.10;7.57;;;6.70;99.90;;;;;;4867591;29;20052;-78
2024/01/25 10:31:24;;;;;;;47.42;8.30;;;6.80;99.90;;;;;;4880152;29;20056;-78
2024/01/25 10:33:52;;;;;;;51.17;11.15;;;6.60;99.90;;;;;;4879007;29;20132;-77
2024/01/25 10:36:18;;;;;;;41.22;9.32;;;6.60;99.90;;;;;;4879686;29;20060;-78
2024/01/25 10:38:47;;;;;;;44.08;10.40;;;6.50;99.90;;;;;;4880727;29;20685;-77
2024/01/25 10:41:14;;;;;;;45.88;9.82;;;6.50;99.90;;;;;;4880256;29;20087;-79
2024/01/25 10:43:40;;;;;;;43.90;8.88;;;6.50;99.90;;;;;;4881257;29;20127;-78
2024/01/25 10:46:07;;;;;;;40.55;8.70;;;6.60;99.90;;;;;;4880777;29;20531;-78
2024/01/25 10:48:33;;;;;;;52.22;9.25;;;6.60;99.90;;;;;;4880958;29;20497;-77
2024/01/25 10:51:02;;;;;;;41.75;10.05;;;6.70;99.90;;;;;;4880970;29;20057;-76
2024/01/25 10:53:31;;;;;;;38.72;8.20;;;6.80;99.90;;;;;;4880852;29;20497;-77
2024/01/25 10:55:57;;;;;;;46.20;8.15;;;6.90;99.90;;;;;;4897723;29;20056;-77
2024/01/25 10:58:23;;;;;;;49.00;9.02;;;7.00;99.90;;;;;;4881066;29;20051;-77
2024/01/25 11:00:58;;;;;;;41.03;8.40;;;7.00;99.90;;;;;;4880975;29;20049;-77
2024/01/25 11:03:33;;;;;;;34.35;8.23;;;7.10;99.90;;;;;;4899818;29;20052;-76
2024/01/25 11:06:09;;;;;;;44.72;8.88;;;7.20;99.90;;;;;;4901510;29;20112;-76
2024/01/25 11:08:38;;;;;;;46.83;8.15;;;7.30;99.90;;;;;;4884455;29;20063;-77
2024/01/25 11:11:12;;;;;;;40.33;8.32;;;7.40;99.90;;;;;;4884302;29;20052;-76
2024/01/25 11:13:44;;;;;;;35.92;8.35;;;7.40;99.90;;;;;;4884356;29;20052;-76
2024/01/25 11:16:34;;;;;;;49.03;8.05;;;7.40;99.90;;;;;;4901254;29;20032;-76
2024/01/25 11:19:09;;;;;;;34.72;7.35;;;7.40;99.90;;;;;;4884503;29;20529;-76
2024/01/25 11:21:43;;;;;;;39.10;8.75;;;7.30;99.90;;;;;;4884133;29;20052;-76
2024/01/25 11:24:16;;;;;;;44.50;7.78;;;7.50;99.90;;;;;;4884083;29;20135;-77
2024/01/25 11:26:46;;;;;;;41.78;8.45;;;7.50;99.90;;;;;;4884060;29;20100;-76
2024/01/25 11:29:20;;;;;;;44.65;7.72;;;7.70;99.90;;;;;;4883792;29;20524;-77
2024/01/25 11:31:47;;;;;;;38.30;7.75;;;7.80;99.90;;;;;;4884031;29;20104;-77
2024/01/25 11:34:15;;;;;;;36.05;7.65;;;7.90;99.90;;;;;;4884221;29;20036;-77
2024/01/25 11:36:41;;;;;;;31.92;8.80;;;7.90;99.90;;;;;;4883914;29;20052;-76
2024/01/25 11:39:09;;;;;;;36.92;8.43;;;7.90;99.90;;;;;;4883837;29;20127;-77
2024/01/25 11:41:35;;;;;;;38.50;9.50;;;7.90;99.90;;;;;;4900815;29;20052;-77
2024/01/25 11:44:02;;;;;;;38.38;8.05;;;7.90;99.90;;;;;;4883660;29;20044;-77
2024/01/25 11:46:30;;;;;;;35.25;6.78;;;7.90;99.90;;;;;;4884008;29;20056;-77
2024/01/25 11:48:58;;;;;;;34.67;7.55;;;7.80;99.90;;;;;;4883615;29;20047;-77
2024/01/25 11:51:24;;;;;;;33.20;8.95;;;7.80;99.90;;;;;;4883673;29;20059;-76
2024/01/25 11:53:49;;;;;;;34.78;7.65;;;7.70;99.90;;;;;;4883782;29;20492;-76
2024/01/25 11:56:28;;;;;;;43.13;8.18;;;7.70;99.90;;;;;;4883552;29;20099;-77
2024/01/25 11:58:56;;;;;;;32.88;8.10;;;7.70;99.90;;;;;;4883851;29;20063;-77
2024/01/25 12:01:24;;;;;;;39.30;7.68;;;7.70;99.90;;;;;;4883561;29;20052;-77
2024/01/25 12:03:53;;;;;;;37.80;7.32;;;7.70;99.90;;;;;;4883529;29;20048;-77
2024/01/25 12:06:18;;;;;;;44.00;9.93;;;7.80;99.90;;;;;;4883486;29;20048;-77
2024/01/25 12:08:46;;;;;;;36.65;8.52;;;7.80;99.90;;;;;;4883698;29;20063;-77
2024/01/25 12:11:12;;;;;;;34.50;9.00;;;7.90;99.90;;;;;;4883185;29;20061;-77
2024/01/25 12:13:42;;;;;;;35.78;8.60;;;7.90;99.90;;;;;;4883225;29;20049;-77
2024/01/25 12:16:12;;;;;;;35.38;7.75;;;8.00;99.90;;;;;;4899802;29;20048;-76
2024/01/25 12:18:40;;;;;;;30.55;7.90;;;8.20;99.90;;;;;;4900134;29;20040;-76
2024/01/25 12:21:06;;;;;;;35.17;8.48;;;8.30;99.90;;;;;;4899832;29;20579;-78
2024/01/25 12:23:33;;;;;;;33.20;7.43;;;8.40;99.90;;;;;;4883175;29;20055;-77
2024/01/25 12:26:00;;;;;;;31.92;7.15;;;8.50;99.90;;;;;;4883247;29;20064;-77
2024/01/25 12:28:28;;;;;;;33.10;8.20;;;8.60;99.90;;;;;;4883268;29;20075;-77
2024/01/25 12:30:54;;;;;;;42.72;8.07;;;8.70;99.90;;;;;;4883172;29;20056;-76
2024/01/25 12:33:19;;;;;;;32.92;7.93;;;8.70;99.90;;;;;;4882832;29;20048;-78
2024/01/25 12:35:45;;;;;;;37.85;9.98;;;8.70;99.90;;;;;;4899808;29;20056;-77
2024/01/25 12:38:10;;;;;;;27.15;7.95;;;8.70;99.90;;;;;;4899277;29;20059;-77
2024/01/25 12:40:36;;;;;;;32.67;7.82;;;8.70;99.90;;;;;;4899794;29;20040;-77
2024/01/25 12:43:02;;;;;;;32.75;7.03;;;8.70;99.90;;;;;;4899814;29;20438;-76